createdAt,value
2022-11-24T00:00:39.606Z,4.17
2022-11-24T00:04:40.664Z,4.30
2022-11-24T00:08:43.738Z,4.00
2022-11-24T00:12:44.893Z,5.47
2022-11-24T00:16:46.033Z,5.07
2022-11-24T00:20:52.349Z,5.13
2022-11-24T00:24:53.523Z,4.73
2022-11-24T00:28:57.829Z,5.80
2022-11-24T00:32:58.978Z,4.50
2022-11-24T00:37:00.047Z,4.77
2022-11-24T00:41:01.107Z,4.57
2022-11-24T00:45:13.172Z,5.17
2022-11-24T00:49:05.702Z,4.00
2022-11-24T00:53:06.862Z,5.50
2022-11-24T00:57:08.019Z,5.27
2022-11-24T01:01:15.576Z,5.03
2022-11-24T01:05:17.655Z,5.67
2022-11-24T01:09:18.767Z,5.80
2022-11-24T01:13:19.950Z,3.90
2022-11-24T01:17:21.050Z,5.30
2022-11-24T01:21:22.908Z,5.83
2022-11-24T01:25:23.973Z,6.07
2022-11-24T01:29:25.337Z,6.17
2022-11-24T01:33:26.431Z,6.10
2022-11-24T01:37:27.513Z,5.47
2022-11-24T01:41:28.796Z,4.60
2022-11-24T01:45:41.291Z,5.40
2022-11-24T01:49:46.334Z,6.03
2022-11-24T01:53:51.297Z,5.50
2022-11-24T01:58:05.491Z,5.50
2022-11-24T02:02:07.595Z,5.20
2022-11-24T02:06:12.230Z,4.83
2022-11-24T02:10:14.610Z,4.90
2022-11-24T02:14:18.094Z,5.37
2022-11-24T02:18:19.281Z,4.80
2022-11-24T02:22:24.267Z,4.67
2022-11-24T02:26:41.214Z,5.33
2022-11-24T02:30:42.649Z,5.13
2022-11-24T02:34:43.766Z,5.30
2022-11-24T02:38:44.846Z,5.57
2022-11-24T02:42:46.526Z,4.40
2022-11-24T02:46:47.602Z,4.77
2022-11-24T02:50:48.662Z,5.73
2022-11-24T02:54:49.745Z,6.63
2022-11-24T02:58:50.910Z,6.77
2022-11-24T03:02:52.097Z,4.83
2022-11-24T03:06:53.526Z,5.90
2022-11-24T03:10:54.704Z,5.60
2022-11-24T03:14:55.869Z,6.00
2022-11-24T03:18:57.048Z,4.80
2022-11-24T03:22:58.130Z,5.73
2022-11-24T03:26:59.279Z,4.83
2022-11-24T03:31:01.508Z,6.33
2022-11-24T03:35:03.617Z,5.13
2022-11-24T03:39:04.781Z,4.97
2022-11-24T03:43:05.883Z,5.30
2022-11-24T03:47:07.072Z,5.63
2022-11-24T03:51:09.718Z,5.27
2022-11-24T03:55:10.799Z,5.33
2022-11-24T03:59:11.964Z,5.30
2022-11-24T04:03:13.114Z,5.77
2022-11-24T04:07:14.392Z,5.20
2022-11-24T04:11:34.077Z,5.87
2022-11-24T04:15:38.434Z,5.70
2022-11-24T04:19:39.519Z,4.50
2022-11-24T04:23:40.592Z,6.03
2022-11-24T04:27:41.668Z,6.07
2022-11-24T04:31:42.951Z,5.87
2022-11-24T04:35:44.099Z,6.90
2022-11-24T04:39:45.657Z,5.20
2022-11-24T04:43:49.741Z,5.70
2022-11-24T04:47:50.909Z,5.30
2022-11-24T04:51:52.087Z,4.93
2022-11-24T04:55:53.251Z,4.37
2022-11-24T04:59:54.841Z,5.00
2022-11-24T05:03:56.432Z,6.10
2022-11-24T05:08:01.053Z,6.20
2022-11-24T05:12:02.266Z,5.53
2022-11-24T05:16:04.195Z,6.07
2022-11-24T05:20:06.425Z,5.20
2022-11-24T05:24:07.733Z,5.20
2022-11-24T05:28:11.643Z,4.70
2022-11-24T05:32:12.732Z,5.73
2022-11-24T05:36:15.797Z,5.93
2022-11-24T05:40:16.869Z,6.27
2022-11-24T05:44:18.010Z,6.83
2022-11-24T05:48:19.090Z,6.67
2022-11-24T05:52:20.353Z,7.47
2022-11-24T05:56:21.517Z,8.33
2022-11-24T06:00:22.663Z,8.93
2022-11-24T06:04:23.724Z,6.00
2022-11-24T06:08:30.719Z,8.67
2022-11-24T06:12:27.811Z,6.80
2022-11-24T06:16:28.989Z,8.20
2022-11-24T06:20:32.936Z,7.30
2022-11-24T06:24:33.308Z,6.50
2022-11-24T06:28:35.460Z,6.60
2022-11-24T06:32:36.597Z,8.93
2022-11-24T06:36:38.871Z,8.07
2022-11-24T06:40:39.934Z,8.20
2022-11-24T06:44:41.201Z,10.07
2022-11-24T06:48:42.342Z,8.63
2022-11-24T06:52:43.512Z,7.23
2022-11-24T06:56:44.661Z,6.27
2022-11-24T07:00:45.767Z,5.80
2022-11-24T07:04:46.923Z,7.20
2022-11-24T07:08:48.300Z,9.30
2022-11-24T07:12:49.522Z,6.87
2022-11-24T07:16:50.701Z,6.30
2022-11-24T07:20:51.851Z,4.70
2022-11-24T07:24:52.928Z,7.37
2022-11-24T07:28:53.975Z,5.53
2022-11-24T07:32:59.285Z,5.97
2022-11-24T07:37:00.336Z,5.50
2022-11-24T07:41:02.817Z,6.00
2022-11-24T07:45:06.173Z,5.40
2022-11-24T07:49:07.234Z,9.90
2022-11-24T07:53:08.366Z,4.97
2022-11-24T07:57:09.428Z,4.50
2022-11-24T08:01:13.662Z,4.10
2022-11-24T08:05:14.838Z,4.33
2022-11-24T08:09:15.929Z,5.67
2022-11-24T08:13:17.887Z,5.07
2022-11-24T08:17:19.451Z,5.63
2022-11-24T08:21:22.533Z,5.13
2022-11-24T08:25:25.518Z,5.40
2022-11-24T08:29:30.579Z,3.97
2022-11-24T08:33:32.438Z,5.00
2022-11-24T08:37:33.578Z,4.70
2022-11-24T08:41:34.656Z,4.50
2022-11-24T08:45:41.198Z,6.30
2022-11-24T08:49:38.773Z,5.23
2022-11-24T08:53:40.749Z,4.80
2022-11-24T08:57:42.501Z,5.20
2022-11-24T09:01:44.037Z,4.87
2022-11-24T09:05:53.040Z,5.93
2022-11-24T09:09:48.226Z,4.63
2022-11-24T09:13:49.789Z,6.70
2022-11-24T09:17:50.958Z,5.70
2022-11-24T09:21:52.038Z,7.57
2022-11-24T09:25:53.178Z,5.90
2022-11-24T09:29:54.235Z,5.97
2022-11-24T09:33:56.107Z,8.03
2022-11-24T09:37:57.179Z,6.20
2022-11-24T09:42:13.833Z,6.27
2022-11-24T09:46:22.347Z,9.17
2022-11-24T09:50:33.384Z,6.97
2022-11-24T09:54:36.935Z,6.10
2022-11-24T09:58:53.543Z,6.20
2022-11-24T10:02:54.825Z,6.00
2022-11-24T10:07:02.670Z,3.67
2022-11-24T10:11:07.555Z,4.50
2022-11-24T10:15:12.431Z,4.30
2022-11-24T10:19:39.823Z,4.90
2022-11-24T10:24:03.129Z,3.60
2022-11-24T10:28:07.996Z,4.27
2022-11-24T10:32:25.116Z,4.33
2022-11-24T10:36:45.321Z,4.50
2022-11-24T10:40:57.787Z,4.93
2022-11-24T10:45:03.972Z,4.53
2022-11-24T10:49:05.706Z,4.10
2022-11-24T10:53:19.707Z,3.67
2022-11-24T10:57:33.356Z,4.37
2022-11-24T11:01:35.167Z,3.00
2022-11-24T11:05:43.104Z,2.90
2022-11-24T11:09:45.378Z,3.33
2022-11-24T11:13:51.562Z,3.00
2022-11-24T11:17:58.818Z,2.60
2022-11-24T11:22:12.317Z,2.60
2022-11-24T11:26:21.938Z,2.60
2022-11-24T11:34:37.008Z,2.57
2022-11-24T11:38:39.708Z,2.93
2022-11-24T11:43:06.237Z,2.97
2022-11-24T11:46:56.832Z,3.30
2022-11-24T11:51:24.541Z,3.37
2022-11-24T11:55:17.656Z,3.63
2022-11-24T11:59:37.950Z,3.17
2022-11-24T12:03:51.483Z,3.90
2022-11-24T12:08:20.717Z,3.87
2022-11-24T12:12:37.156Z,2.97
2022-11-24T12:16:48.310Z,3.50
2022-11-24T12:21:13.331Z,2.77
2022-11-24T12:25:24.335Z,4.30
2022-11-24T12:29:44.204Z,3.30
2022-11-24T12:34:01.299Z,3.00
2022-11-24T12:38:22.253Z,3.57
2022-11-24T12:43:00.837Z,4.53
2022-11-24T12:47:17.551Z,2.10
2022-11-24T12:51:22.119Z,3.70
2022-11-24T12:55:24.919Z,3.33
2022-11-24T13:00:03.667Z,3.13
2022-11-24T13:04:35.916Z,2.97
2022-11-24T13:08:47.190Z,2.50
2022-11-24T13:13:02.182Z,7.07
2022-11-24T13:22:37.212Z,2.97
2022-11-24T13:27:14.288Z,4.13
2022-11-24T13:31:47.530Z,3.53
2022-11-24T13:36:39.919Z,3.73
2022-11-24T13:40:54.321Z,2.83
2022-11-24T13:45:00.834Z,3.57
2022-11-24T13:49:08.957Z,2.43
2022-11-24T13:53:21.020Z,3.37
2022-11-24T13:58:07.265Z,3.53
2022-11-24T14:02:24.060Z,4.70
2022-11-24T14:06:55.510Z,2.93
2022-11-24T14:15:42.558Z,3.70
2022-11-24T14:19:48.118Z,3.70
2022-11-24T14:24:14.586Z,3.23
2022-11-24T14:28:24.715Z,3.70
2022-11-24T14:37:04.711Z,2.90
2022-11-24T14:41:27.442Z,3.13
2022-11-24T14:45:38.284Z,2.40
2022-11-24T14:49:51.528Z,2.80
2022-11-24T14:54:13.178Z,2.80
2022-11-24T14:58:38.940Z,4.30
2022-11-24T15:02:48.840Z,3.33
2022-11-24T15:06:56.568Z,3.13
2022-11-24T15:11:00.355Z,2.97
2022-11-24T15:15:05.309Z,3.87
2022-11-24T15:19:10.308Z,3.90
2022-11-24T15:23:22.201Z,3.10
2022-11-24T15:27:23.267Z,2.40
2022-11-24T15:31:24.687Z,3.20
2022-11-24T15:35:31.625Z,2.90
2022-11-24T15:39:32.786Z,3.60
2022-11-24T15:43:37.751Z,2.97
2022-11-24T15:47:45.580Z,3.00
2022-11-24T15:51:52.819Z,5.27
2022-11-24T15:56:10.962Z,4.67
2022-11-24T16:00:26.258Z,3.90
2022-11-24T16:04:33.425Z,3.33
2022-11-24T16:08:35.119Z,3.40
2022-11-24T16:12:36.266Z,4.07
2022-11-24T16:16:41.450Z,3.90
2022-11-24T16:20:43.478Z,3.00
2022-11-24T16:24:47.170Z,4.07
2022-11-24T16:28:48.783Z,3.77
2022-11-24T16:32:52.701Z,3.40
2022-11-24T16:37:05.826Z,5.10
2022-11-24T16:41:17.035Z,5.40
2022-11-24T16:45:25.262Z,4.00
2022-11-24T16:49:31.697Z,3.83
2022-11-24T16:53:34.362Z,5.07
2022-11-24T16:57:44.135Z,5.67
2022-11-24T17:01:47.958Z,4.90
2022-11-24T17:05:59.821Z,4.43
2022-11-24T17:10:06.518Z,4.00
2022-11-24T17:14:10.845Z,4.50
2022-11-24T17:18:28.369Z,3.93
2022-11-24T17:22:15.983Z,5.07
2022-11-24T17:26:17.352Z,6.53
2022-11-24T17:30:18.532Z,5.60
2022-11-24T17:34:19.753Z,16.77
2022-11-24T17:38:21.157Z,15.87
2022-11-24T17:42:22.417Z,8.83
2022-11-24T17:46:25.350Z,10.73
2022-11-24T17:50:26.831Z,7.50
2022-11-24T17:58:32.588Z,8.43
2022-11-24T18:02:33.837Z,5.67
2022-11-24T18:06:35.795Z,4.23
2022-11-24T18:10:37.260Z,4.40
2022-11-24T18:14:38.327Z,6.60
2022-11-24T18:18:40.990Z,6.33
2022-11-24T18:23:04.664Z,5.00
2022-11-24T18:26:46.259Z,4.60
2022-11-24T18:30:48.588Z,5.33
2022-11-24T18:34:50.315Z,5.43
2022-11-24T18:38:51.462Z,5.80
2022-11-24T18:42:52.657Z,6.80
2022-11-24T18:46:53.760Z,6.40
2022-11-24T18:50:56.429Z,5.40
2022-11-24T18:54:59.608Z,7.83
2022-11-24T18:59:00.971Z,10.77
2022-11-24T19:03:02.162Z,15.20
2022-11-24T19:07:03.540Z,10.13
2022-11-24T19:11:04.987Z,14.30
2022-11-24T19:15:08.148Z,10.60
2022-11-24T19:19:11.635Z,12.80
2022-11-24T19:23:13.013Z,17.20
2022-11-24T19:27:15.786Z,12.80
2022-11-24T19:31:18.763Z,10.43
2022-11-24T19:35:19.934Z,6.80
2022-11-24T19:39:21.081Z,6.00
2022-11-24T19:43:22.163Z,5.57
2022-11-24T19:47:23.333Z,5.70
2022-11-24T19:51:30.028Z,5.07
2022-11-24T19:55:31.493Z,4.20
2022-11-24T19:59:32.562Z,5.07
2022-11-24T20:03:34.222Z,4.53
2022-11-24T20:07:35.461Z,5.83
2022-11-24T20:11:36.973Z,6.90
2022-11-24T20:15:38.099Z,6.27
2022-11-24T20:19:39.270Z,5.07
2022-11-24T20:23:41.355Z,5.63
2022-11-24T20:27:42.535Z,10.47
2022-11-24T20:31:46.849Z,7.83
2022-11-24T20:35:47.973Z,5.93
2022-11-24T20:39:49.929Z,4.77
2022-11-24T20:43:52.500Z,5.47
2022-11-24T20:47:53.683Z,5.40
2022-11-24T20:51:56.572Z,4.67
2022-11-24T20:56:07.599Z,7.67
2022-11-24T21:00:09.344Z,9.07
2022-11-24T21:04:16.803Z,5.97
2022-11-24T21:08:18.564Z,4.57
2022-11-24T21:12:19.638Z,7.50
2022-11-24T21:16:26.798Z,6.20
2022-11-24T21:20:28.020Z,8.63
2022-11-24T21:24:30.290Z,11.03
2022-11-24T21:28:31.977Z,12.37
2022-11-24T21:32:33.171Z,9.53
2022-11-24T21:36:35.080Z,10.77
2022-11-24T21:40:36.215Z,6.87
2022-11-24T21:44:37.423Z,6.20
2022-11-24T21:48:40.397Z,7.50
2022-11-24T21:52:41.478Z,7.13
2022-11-24T21:56:42.678Z,6.23
2022-11-24T22:00:43.864Z,6.07
2022-11-24T22:04:45.035Z,6.03
2022-11-24T22:08:47.596Z,6.00
2022-11-24T22:12:48.671Z,4.90
2022-11-24T22:16:49.838Z,5.47
2022-11-24T22:20:55.413Z,5.33
2022-11-24T22:24:56.606Z,5.20
2022-11-24T22:28:58.097Z,5.13
2022-11-24T22:32:59.241Z,5.10
2022-11-24T22:37:00.309Z,7.40
2022-11-24T22:41:03.574Z,9.30
2022-11-24T22:45:05.655Z,7.10
2022-11-24T22:49:06.816Z,9.67
2022-11-24T22:53:09.067Z,9.37
2022-11-24T22:57:10.237Z,7.70
2022-11-24T23:01:13.902Z,8.03
2022-11-24T23:05:20.493Z,7.90
2022-11-24T23:09:18.019Z,9.00
2022-11-24T23:13:19.089Z,8.50
2022-11-24T23:17:20.267Z,9.30
2022-11-24T23:21:23.731Z,8.70
2022-11-24T23:25:24.811Z,8.70
2022-11-24T23:29:25.978Z,7.37
2022-11-24T23:33:27.028Z,7.77
2022-11-24T23:37:52.207Z,7.47
2022-11-24T23:41:31.852Z,8.53
2022-11-24T23:45:33.164Z,7.60
2022-11-24T23:49:34.375Z,7.43
2022-11-24T23:53:35.630Z,7.43
2022-11-24T23:57:36.705Z,6.80
